Archival Weather

Norman Y Mineta San Jose Intl

San Jose, California (KSJC)

Report from: Sunday, February 18, 2024 1:53 PM PST
Current time: Friday, June 21, 2024 1:26 AM PDT

Current weather – Weather history – Daily summaries
Weather forecast

Temperature18.9°C (66.0°F)
Dew point10.6°C (51.1°F)
Winds 19 kts (9.8 m/s, 21.9 mph) South-Southeast (150°)
Peak wind 35 kts (18 m/s, 40.3 mph) Southeast (140°) at 20:59
Visibility10 mi. (16.1 km)
Clouds Few clouds 2,200 ft. (671 m)
Scattered clouds 3,800 ft. (1,158 m)
Ceiling: Broken clouds 5,500 ft. (1,676 m)
Altimeter29.81 in.Hg (1009 mB)
PrecipitiationTrace
Precip. events Rain began 9:31 PM
Rain ended 9:41 PM
Relative humidity59 %
Density altitude768 ft. (234 m)
Sea-level pressure100.9 kPa (1009 mB, 29.81 in.Hg)
Remarks Corrected report
Automated weather observing station with precipitation discriminator
Flight conditions Visual Meteorological Conditions
Raw dataKSJC 182153Z COR 15019KT 10SM FEW022 SCT038 BKN055 19/11 A2981 RMK AO2 PK WND 14035/2059 RAB31E41 SLP094 P0000 T01890106
An error has occurred. This application may no longer respond until reloaded. Reload 🗙